createdAt,value
2018-12-19T00:01:09.095Z,65.03
2018-12-19T00:03:40.346Z,66.20
2018-12-19T00:06:11.639Z,66.67
2018-12-19T00:08:41.667Z,67.17
2018-12-19T00:11:12.180Z,66.60
2018-12-19T00:13:41.682Z,67.67
2018-12-19T00:16:11.215Z,67.40
2018-12-19T00:18:40.714Z,68.17
2018-12-19T00:21:10.219Z,72.37
2018-12-19T00:23:39.770Z,68.17
2018-12-19T00:26:09.538Z,70.47
2018-12-19T00:28:40.789Z,71.00
2018-12-19T00:31:12.079Z,70.57
2018-12-19T00:33:43.410Z,71.77
2018-12-19T00:36:12.971Z,71.50
2018-12-19T00:38:42.526Z,67.47
2018-12-19T00:41:12.023Z,66.13
2018-12-19T00:43:41.584Z,68.30
2018-12-19T00:46:11.095Z,69.50
2018-12-19T00:48:40.590Z,71.00
2018-12-19T00:51:10.102Z,69.33
2018-12-19T00:53:39.590Z,66.60
2018-12-19T00:56:09.094Z,65.23
2018-12-19T00:58:38.630Z,66.77
2018-12-19T01:01:08.138Z,68.20
2018-12-19T01:03:37.642Z,67.73
2018-12-19T01:06:07.151Z,70.50
2018-12-19T01:08:36.671Z,68.30
2018-12-19T01:11:06.162Z,68.80
2018-12-19T01:13:35.662Z,68.23
2018-12-19T01:16:05.230Z,65.77
2018-12-19T01:18:34.727Z,69.13
2018-12-19T01:21:04.264Z,68.63
2018-12-19T01:23:33.811Z,65.93
2018-12-19T01:26:03.334Z,69.83
2018-12-19T01:28:32.935Z,69.33
2018-12-19T01:31:02.443Z,71.57
2018-12-19T01:33:31.986Z,68.33
2018-12-19T01:36:01.523Z,72.20
2018-12-19T01:38:31.026Z,69.57
2018-12-19T01:41:00.546Z,70.73
2018-12-19T01:43:30.049Z,69.47
2018-12-19T01:45:59.591Z,67.07
2018-12-19T01:48:29.100Z,69.50
2018-12-19T01:50:58.699Z,71.00
2018-12-19T01:53:28.235Z,72.73
2018-12-19T01:55:58.178Z,69.63
2018-12-19T01:58:27.783Z,68.53
2018-12-19T02:00:57.435Z,65.63
2018-12-19T02:03:26.939Z,70.07
2018-12-19T02:05:56.478Z,71.93
2018-12-19T02:08:25.983Z,68.63
2018-12-19T02:10:55.493Z,71.33
2018-12-19T02:13:24.999Z,69.27
2018-12-19T02:15:54.506Z,70.43
2018-12-19T02:18:24.046Z,68.80
2018-12-19T02:20:53.559Z,71.37
2018-12-19T02:23:23.058Z,70.37
2018-12-19T02:25:52.278Z,72.50
2018-12-19T02:28:21.695Z,71.00
2018-12-19T02:30:51.202Z,73.07
2018-12-19T02:33:20.736Z,74.10
2018-12-19T02:35:50.314Z,72.53
2018-12-19T02:38:19.816Z,79.20
2018-12-19T02:40:49.323Z,76.67
2018-12-19T02:43:18.818Z,77.70
2018-12-19T02:45:48.334Z,77.23
2018-12-19T02:48:17.827Z,78.63
2018-12-19T02:50:47.379Z,79.90
2018-12-19T02:53:16.892Z,79.63
2018-12-19T02:55:46.394Z,83.33
2018-12-19T02:58:15.934Z,78.73
2018-12-19T03:00:45.461Z,80.37
2018-12-19T03:03:14.959Z,79.40
2018-12-19T03:05:44.454Z,81.17
2018-12-19T03:08:17.979Z,85.10
2018-12-19T03:10:47.598Z,83.60
2018-12-19T03:13:17.010Z,86.33
2018-12-19T03:15:46.550Z,81.33
2018-12-19T03:18:16.092Z,84.20
2018-12-19T03:20:45.603Z,84.13
2018-12-19T03:23:15.109Z,86.40
2018-12-19T03:25:44.613Z,86.50
2018-12-19T03:28:14.118Z,81.57
2018-12-19T03:30:43.666Z,84.50
2018-12-19T03:33:13.442Z,84.73
2018-12-19T03:35:42.946Z,84.10
2018-12-19T03:38:16.667Z,87.57
2018-12-19T03:40:46.183Z,84.87
2018-12-19T03:43:15.686Z,87.10
2018-12-19T03:45:45.215Z,92.27
2018-12-19T03:49:22.808Z,86.53
2018-12-19T03:51:52.930Z,87.60
2018-12-19T03:54:22.110Z,82.70
2018-12-19T03:56:52.137Z,87.33
2018-12-19T03:59:21.643Z,86.53
2018-12-19T04:01:51.138Z,86.70
2018-12-19T04:04:20.639Z,83.37
2018-12-19T04:06:50.135Z,84.20
2018-12-19T04:09:19.639Z,81.17
2018-12-19T04:11:48.770Z,82.17
2018-12-19T04:14:18.219Z,80.77
2018-12-19T04:16:47.720Z,77.40
2018-12-19T04:19:17.254Z,79.57
2018-12-19T04:21:48.508Z,75.23
2018-12-19T04:24:18.042Z,79.57
2018-12-19T04:26:47.551Z,78.93
2018-12-19T04:29:17.065Z,78.50
2018-12-19T04:31:46.599Z,79.00
2018-12-19T04:34:16.110Z,77.30
2018-12-19T04:36:45.635Z,76.77
2018-12-19T04:39:16.295Z,76.27
2018-12-19T04:41:45.798Z,74.37
2018-12-19T04:44:15.318Z,70.70
2018-12-19T04:46:44.839Z,72.70
2018-12-19T04:49:14.346Z,73.87
2018-12-19T04:51:43.858Z,73.67
2018-12-19T04:54:13.386Z,70.27
2018-12-19T04:56:42.889Z,68.57
2018-12-19T04:59:13.480Z,73.10
2018-12-19T05:01:43.047Z,68.83
2018-12-19T05:04:12.794Z,69.00
2018-12-19T05:06:42.342Z,68.90
2018-12-19T05:09:11.854Z,68.07
2018-12-19T05:11:42.055Z,68.90
2018-12-19T05:14:11.570Z,68.60
2018-12-19T05:16:41.066Z,65.73
2018-12-19T05:19:10.569Z,67.17
2018-12-19T05:21:40.092Z,63.03
2018-12-19T05:24:09.699Z,62.83
2018-12-19T05:26:39.197Z,62.90
2018-12-19T05:29:08.691Z,59.37
2018-12-19T05:31:38.190Z,56.83
2018-12-19T05:34:07.739Z,58.83
2018-12-19T05:36:37.399Z,56.53
2018-12-19T05:39:07.535Z,59.03
2018-12-19T05:41:37.047Z,54.60
2018-12-19T05:44:06.548Z,52.23
2018-12-19T05:46:36.214Z,50.87
2018-12-19T05:49:05.743Z,50.90
2018-12-19T05:51:34.934Z,51.30
2018-12-19T05:54:04.586Z,50.63
2018-12-19T05:56:34.014Z,48.10
2018-12-19T05:59:03.680Z,46.63
2018-12-19T06:01:33.195Z,49.03
2018-12-19T06:04:04.081Z,46.97
2018-12-19T06:06:33.520Z,49.77
2018-12-19T06:09:04.525Z,48.53
2018-12-19T06:11:35.421Z,51.10
2018-12-19T06:14:04.557Z,47.67
2018-12-19T06:16:33.973Z,49.00
2018-12-19T06:19:03.634Z,48.93
2018-12-19T06:21:33.118Z,49.40
2018-12-19T06:24:02.656Z,46.83
2018-12-19T06:26:32.166Z,44.50
2018-12-19T06:29:03.453Z,44.67
2018-12-19T06:31:33.031Z,46.43
2018-12-19T06:34:02.547Z,47.43
2018-12-19T06:36:32.064Z,47.67
2018-12-19T06:39:01.954Z,47.97
2018-12-19T06:41:32.582Z,48.27
2018-12-19T06:44:02.668Z,50.60
2018-12-19T06:46:32.183Z,60.13
2018-12-19T06:49:01.719Z,56.17
2018-12-19T06:51:31.219Z,59.03
2018-12-19T06:54:00.726Z,61.47
2018-12-19T06:56:30.239Z,49.90
2018-12-19T06:58:59.747Z,60.50
2018-12-19T07:01:29.262Z,55.80
2018-12-19T07:03:58.818Z,50.00
2018-12-19T07:06:28.315Z,51.20
2018-12-19T07:08:58.191Z,47.90
2018-12-19T07:11:28.111Z,43.93
2018-12-19T07:13:57.607Z,45.57
2018-12-19T07:16:27.119Z,43.30
2018-12-19T07:18:56.271Z,40.77
2018-12-19T07:21:26.036Z,42.20
2018-12-19T07:23:55.874Z,41.00
2018-12-19T07:26:25.415Z,42.40
2018-12-19T07:28:54.940Z,40.83
2018-12-19T07:31:24.541Z,38.47
2018-12-19T07:33:54.108Z,41.73
2018-12-19T07:36:23.611Z,41.10
2018-12-19T07:38:53.102Z,39.83
2018-12-19T07:41:22.607Z,39.87
2018-12-19T07:43:52.103Z,37.87
2018-12-19T07:46:21.683Z,36.13
2018-12-19T07:48:51.230Z,37.53
2018-12-19T07:51:20.729Z,35.87
2018-12-19T07:53:50.266Z,36.03
2018-12-19T07:56:20.250Z,39.93
2018-12-19T07:58:50.846Z,35.90
2018-12-19T08:01:20.361Z,35.40
2018-12-19T08:03:49.862Z,35.20
2018-12-19T08:06:19.422Z,34.67
2018-12-19T08:08:49.202Z,34.00
2018-12-19T08:11:18.698Z,34.30
2018-12-19T08:13:48.227Z,33.23
2018-12-19T08:16:17.718Z,34.57
2018-12-19T08:18:47.822Z,31.73
2018-12-19T08:21:17.362Z,32.90
2018-12-19T08:23:46.880Z,33.53
2018-12-19T08:26:16.406Z,32.33
2018-12-19T08:28:46.526Z,32.37
2018-12-19T08:31:16.039Z,31.50
2018-12-19T08:33:45.539Z,29.40
2018-12-19T08:36:15.262Z,30.10
2018-12-19T08:38:44.758Z,29.57
2018-12-19T08:41:14.262Z,29.60
2018-12-19T08:43:43.770Z,29.80
2018-12-19T08:46:14.690Z,29.90
2018-12-19T08:48:44.455Z,27.03
2018-12-19T08:51:14.043Z,27.20
2018-12-19T08:53:43.542Z,27.60
2018-12-19T08:56:13.075Z,29.23
2018-12-19T08:58:42.569Z,27.53
2018-12-19T09:01:12.122Z,27.23
2018-12-19T09:03:41.753Z,27.17
2018-12-19T09:06:11.258Z,26.20
2018-12-19T09:08:40.845Z,28.03
2018-12-19T09:11:10.371Z,27.50
2018-12-19T09:13:39.876Z,26.63
2018-12-19T09:16:09.406Z,28.30
2018-12-19T09:18:38.994Z,29.17
2018-12-19T09:21:08.126Z,25.77
2018-12-19T09:23:37.573Z,25.23
2018-12-19T09:26:07.151Z,25.63
2018-12-19T09:28:36.706Z,25.23
2018-12-19T09:31:06.374Z,26.83
2018-12-19T09:33:35.910Z,24.87
2018-12-19T09:36:05.446Z,25.07
2018-12-19T09:38:35.019Z,24.30
2018-12-19T09:41:04.546Z,24.53
2018-12-19T09:43:34.143Z,25.60
2018-12-19T09:46:03.695Z,25.27
2018-12-19T09:48:33.192Z,25.67
2018-12-19T09:51:02.694Z,25.53
2018-12-19T09:53:33.715Z,26.70
2018-12-19T09:56:03.248Z,31.03
2018-12-19T09:58:32.761Z,26.80
2018-12-19T10:01:05.241Z,26.20
2018-12-19T10:03:34.339Z,28.97
2018-12-19T10:06:04.295Z,28.90
2018-12-19T10:08:33.850Z,25.67
2018-12-19T10:11:04.719Z,28.20
2018-12-19T10:13:34.285Z,25.23
2018-12-19T10:16:04.325Z,27.70
2018-12-19T10:18:33.874Z,27.23
2018-12-19T10:21:03.375Z,27.40
2018-12-19T10:23:33.584Z,32.57
2018-12-19T10:26:08.539Z,33.83
2018-12-19T10:28:38.079Z,33.10
2018-12-19T10:31:07.608Z,26.43
2018-12-19T10:33:37.095Z,29.87
2018-12-19T10:36:06.648Z,26.90
2018-12-19T10:38:36.851Z,26.07
2018-12-19T10:41:06.343Z,28.03
2018-12-19T10:43:35.888Z,27.90
2018-12-19T10:46:05.482Z,26.77
2018-12-19T10:48:35.875Z,26.70
2018-12-19T10:51:05.382Z,26.40
2018-12-19T10:53:34.919Z,26.53
2018-12-19T10:56:04.895Z,27.83
2018-12-19T10:58:34.415Z,26.63
2018-12-19T11:01:03.929Z,25.27
2018-12-19T11:03:33.418Z,27.33
2018-12-19T11:06:02.971Z,26.67
2018-12-19T11:08:32.475Z,25.27
2018-12-19T11:11:02.011Z,27.70
2018-12-19T11:13:31.547Z,26.67
2018-12-19T11:16:01.051Z,27.43
2018-12-19T11:18:30.572Z,25.93
2018-12-19T11:20:59.778Z,27.50
2018-12-19T11:23:29.194Z,27.03
2018-12-19T11:25:58.742Z,26.90
2018-12-19T11:28:28.270Z,26.47
2018-12-19T11:30:57.790Z,26.53
2018-12-19T11:33:27.290Z,26.90
2018-12-19T11:35:56.803Z,27.10
2018-12-19T11:38:26.331Z,25.83
2018-12-19T11:40:55.839Z,28.13
2018-12-19T11:43:25.443Z,28.57
2018-12-19T11:45:54.947Z,26.37
2018-12-19T11:48:24.438Z,27.73
2018-12-19T11:50:53.957Z,27.97
2018-12-19T11:53:23.501Z,28.20
2018-12-19T11:55:53.014Z,29.77
2018-12-19T11:58:22.515Z,28.60
2018-12-19T12:00:52.623Z,30.03
2018-12-19T12:03:22.119Z,29.77
2018-12-19T12:05:51.634Z,31.33
2018-12-19T12:08:21.158Z,31.47
2018-12-19T12:10:50.647Z,31.60
2018-12-19T12:13:20.178Z,29.97
2018-12-19T12:15:49.686Z,34.20
2018-12-19T12:18:19.239Z,31.80
2018-12-19T12:20:48.794Z,31.90
2018-12-19T12:23:18.319Z,30.07
2018-12-19T12:25:47.844Z,33.97
2018-12-19T12:28:17.659Z,30.27
2018-12-19T12:30:47.172Z,30.17
2018-12-19T12:33:16.695Z,31.17
2018-12-19T12:35:46.670Z,33.30
2018-12-19T12:38:16.350Z,30.53
2018-12-19T12:40:45.915Z,29.87
2018-12-19T12:43:15.046Z,30.73
2018-12-19T12:45:44.482Z,29.93
2018-12-19T12:48:13.613Z,28.40
2018-12-19T12:50:43.039Z,27.87
2018-12-19T12:53:12.555Z,28.00
2018-12-19T12:55:42.069Z,28.23
2018-12-19T12:58:11.579Z,28.00
2018-12-19T13:00:41.370Z,26.90
2018-12-19T13:03:10.875Z,29.50
2018-12-19T13:05:40.414Z,27.77
2018-12-19T13:08:09.931Z,26.67
2018-12-19T13:10:39.443Z,30.20
2018-12-19T13:13:08.959Z,29.50
2018-12-19T13:15:41.126Z,29.43
2018-12-19T13:18:10.619Z,30.63
2018-12-19T13:20:40.147Z,29.80
2018-12-19T13:23:09.645Z,33.43
2018-12-19T13:25:39.159Z,34.77
2018-12-19T13:28:10.236Z,34.00
2018-12-19T13:30:39.773Z,33.23
2018-12-19T13:33:09.282Z,32.97
2018-12-19T13:35:38.788Z,31.93
2018-12-19T13:38:08.301Z,31.20
2018-12-19T13:40:37.807Z,30.67
2018-12-19T13:43:07.294Z,36.50
2018-12-19T13:45:36.846Z,33.63
2018-12-19T13:48:06.442Z,32.00
2018-12-19T13:50:35.942Z,31.63
2018-12-19T13:53:05.479Z,30.03
2018-12-19T13:55:35.053Z,32.07
2018-12-19T13:58:07.138Z,29.13
2018-12-19T14:00:36.147Z,31.20
2018-12-19T14:03:05.659Z,30.17
2018-12-19T14:05:34.846Z,34.03
2018-12-19T14:08:04.286Z,42.83
2018-12-19T14:10:33.862Z,38.33
2018-12-19T14:13:03.402Z,48.77
2018-12-19T14:15:32.931Z,41.57
2018-12-19T14:18:02.134Z,41.57
2018-12-19T14:20:31.547Z,40.30
2018-12-19T14:23:00.714Z,40.73
2018-12-19T14:25:30.610Z,31.90
2018-12-19T14:28:00.126Z,33.97
2018-12-19T14:30:29.682Z,34.93
2018-12-19T14:32:59.234Z,35.73
2018-12-19T14:35:28.737Z,37.97
2018-12-19T14:37:58.242Z,32.43
2018-12-19T14:40:27.799Z,33.17
2018-12-19T14:42:57.768Z,41.63
2018-12-19T14:45:27.339Z,35.30
2018-12-19T14:47:57.327Z,34.50
2018-12-19T14:50:26.874Z,33.53
2018-12-19T14:52:56.473Z,34.40
2018-12-19T14:55:25.616Z,34.20
2018-12-19T14:57:55.047Z,32.73
2018-12-19T15:00:24.586Z,33.27
2018-12-19T15:02:54.095Z,35.23
2018-12-19T15:05:23.596Z,35.53
2018-12-19T15:07:53.102Z,35.10
2018-12-19T15:10:23.025Z,37.77
2018-12-19T15:12:52.558Z,34.33
2018-12-19T15:15:22.952Z,34.83
2018-12-19T15:17:52.455Z,35.63
2018-12-19T15:20:21.949Z,37.37
2018-12-19T15:22:51.476Z,35.40
2018-12-19T15:25:20.982Z,40.03
2018-12-19T15:27:50.534Z,34.50
2018-12-19T15:30:20.049Z,35.60
2018-12-19T15:32:50.326Z,36.57
2018-12-19T15:35:19.838Z,34.43
2018-12-19T15:37:49.336Z,32.50
2018-12-19T15:40:19.413Z,41.47
2018-12-19T15:42:48.912Z,42.93
2018-12-19T15:45:18.049Z,34.17
2018-12-19T15:47:47.488Z,42.20
2018-12-19T15:50:16.987Z,39.73
2018-12-19T15:52:46.519Z,33.33
2018-12-19T15:55:16.024Z,37.87
2018-12-19T15:57:45.530Z,34.73
2018-12-19T16:00:16.410Z,34.63
2018-12-19T16:02:45.961Z,32.33
2018-12-19T16:05:15.490Z,33.90
2018-12-19T16:07:45.005Z,39.43
2018-12-19T16:10:14.515Z,34.33
2018-12-19T16:12:44.034Z,33.77
2018-12-19T16:15:13.266Z,37.10
2018-12-19T16:17:42.698Z,39.80
2018-12-19T16:20:13.240Z,35.53
2018-12-19T16:22:42.391Z,33.67
2018-12-19T16:25:12.262Z,34.57
2018-12-19T16:27:41.766Z,34.87
2018-12-19T16:30:11.353Z,33.50
2018-12-19T16:32:40.486Z,35.30
2018-12-19T16:35:09.921Z,33.60
2018-12-19T16:37:39.823Z,33.57
2018-12-19T16:40:09.403Z,34.77
2018-12-19T16:42:38.939Z,35.20
2018-12-19T16:45:09.259Z,33.50
2018-12-19T16:47:39.316Z,34.27
2018-12-19T16:50:09.294Z,34.07
2018-12-19T16:52:38.830Z,34.93
2018-12-19T16:55:08.486Z,33.63
2018-12-19T16:57:38.062Z,34.80
2018-12-19T17:00:09.863Z,38.50
2018-12-19T17:02:39.427Z,36.23
2018-12-19T17:05:08.958Z,38.73
2018-12-19T17:07:38.528Z,35.57
2018-12-19T17:10:09.475Z,33.67
2018-12-19T17:12:39.046Z,36.50
2018-12-19T17:15:09.482Z,35.33
2018-12-19T17:17:44.103Z,36.17
2018-12-19T17:20:13.562Z,34.90
2018-12-19T17:22:42.670Z,34.00
2018-12-19T17:25:12.050Z,38.13
2018-12-19T17:27:42.171Z,39.53
2018-12-19T17:30:11.680Z,39.27
2018-12-19T17:32:41.728Z,35.03
2018-12-19T17:35:11.196Z,33.37
2018-12-19T17:37:45.212Z,35.47
2018-12-19T17:40:15.162Z,36.10
2018-12-19T17:42:44.271Z,33.07
2018-12-19T17:45:13.650Z,37.03
2018-12-19T17:47:43.164Z,37.63
2018-12-19T17:50:12.630Z,33.17
2018-12-19T17:52:41.757Z,32.90
2018-12-19T17:55:11.143Z,33.73
2018-12-19T17:57:40.614Z,34.50
2018-12-19T18:00:12.017Z,32.87
2018-12-19T18:02:41.607Z,32.40
2018-12-19T18:05:11.087Z,34.77
2018-12-19T18:07:40.226Z,36.60
2018-12-19T18:10:09.648Z,37.87
2018-12-19T18:12:39.190Z,40.97
2018-12-19T18:15:09.159Z,35.60
2018-12-19T18:17:38.635Z,37.93
2018-12-19T18:20:08.610Z,32.80
2018-12-19T18:22:38.082Z,33.37
2018-12-19T18:25:07.655Z,32.93
2018-12-19T18:27:37.134Z,37.13
2018-12-19T18:30:08.694Z,56.27
2018-12-19T18:32:38.313Z,35.70
2018-12-19T18:35:08.602Z,36.97
2018-12-19T18:37:38.058Z,35.43
2018-12-19T18:40:08.039Z,35.87
2018-12-19T18:42:37.510Z,36.60
2018-12-19T18:45:11.920Z,34.20
2018-12-19T18:47:39.507Z,60.33
2018-12-19T18:50:09.448Z,48.00
2018-12-19T18:52:38.947Z,38.23
2018-12-19T18:55:08.430Z,35.70
2018-12-19T18:57:38.400Z,35.83
2018-12-19T19:00:09.590Z,47.93
2018-12-19T19:02:39.344Z,39.03
2018-12-19T19:05:08.822Z,38.17
2018-12-19T19:07:38.329Z,37.70
2018-12-19T19:10:08.962Z,33.93
2018-12-19T19:12:38.435Z,40.20
2018-12-19T19:15:07.933Z,35.70
2018-12-19T19:17:37.440Z,36.80
2018-12-19T19:20:06.650Z,53.60
2018-12-19T19:22:35.898Z,38.47
2018-12-19T19:25:05.754Z,34.20
2018-12-19T19:27:35.242Z,37.23
2018-12-19T19:30:06.384Z,34.63
2018-12-19T19:32:35.911Z,34.03
2018-12-19T19:35:06.346Z,33.53
2018-12-19T19:37:35.806Z,37.20
2018-12-19T19:40:06.973Z,34.33
2018-12-19T19:42:42.211Z,35.27
2018-12-19T19:45:11.701Z,35.73
2018-12-19T19:47:41.202Z,37.07
2018-12-19T19:50:11.473Z,49.73
2018-12-19T19:52:41.229Z,45.50
2018-12-19T19:55:11.097Z,35.90
2018-12-19T19:57:40.667Z,35.53
2018-12-19T20:00:11.866Z,39.03
2018-12-19T20:02:41.078Z,38.40
2018-12-19T20:05:10.451Z,34.90
2018-12-19T20:07:39.562Z,36.60
2018-12-19T20:10:09.401Z,37.53
2018-12-19T20:12:39.001Z,36.40
2018-12-19T20:15:08.528Z,36.17
2018-12-19T20:17:38.001Z,37.83
2018-12-19T20:20:08.412Z,37.77
2018-12-19T20:22:37.931Z,64.30
2018-12-19T20:25:07.538Z,45.60
2018-12-19T20:27:37.111Z,41.20
2018-12-19T20:30:09.380Z,37.20
2018-12-19T20:32:38.894Z,37.50
2018-12-19T20:35:08.178Z,35.03
2018-12-19T20:37:37.546Z,37.77
2018-12-19T20:40:07.523Z,41.17
2018-12-19T20:51:29.463Z,45.10
2018-12-19T20:57:01.894Z,35.10
2018-12-19T20:59:33.654Z,39.57
2018-12-19T21:02:07.487Z,40.87
2018-12-19T21:04:38.563Z,38.37
2018-12-19T21:07:08.172Z,37.33
2018-12-19T21:09:43.718Z,37.63
2018-12-19T21:12:16.239Z,38.80
2018-12-19T21:14:49.044Z,40.13
2018-12-19T21:17:44.972Z,38.43
2018-12-19T21:20:33.037Z,37.97
2018-12-19T21:23:17.462Z,36.27
2018-12-19T21:25:52.867Z,36.60
2018-12-19T21:28:33.190Z,41.07
2018-12-19T21:31:11.457Z,40.30
2018-12-19T21:33:52.942Z,43.00
2018-12-19T21:36:25.044Z,39.77
2018-12-19T21:39:00.195Z,42.03
2018-12-19T21:41:33.763Z,40.07
2018-12-19T21:44:07.069Z,40.63
2018-12-19T21:46:37.725Z,37.17
2018-12-19T21:49:07.799Z,39.37
2018-12-19T21:51:39.175Z,38.60
2018-12-19T21:54:10.463Z,40.63
2018-12-19T22:18:31.419Z,43.63
2018-12-19T22:38:18.332Z,34.53
2018-12-19T22:40:49.349Z,34.80
2018-12-19T22:43:18.492Z,34.77
2018-12-19T22:45:47.596Z,36.20
2018-12-19T22:48:17.061Z,37.53
2018-12-19T22:50:48.197Z,36.53
2018-12-19T22:53:17.758Z,36.67
2018-12-19T22:55:47.301Z,37.60
2018-12-19T22:58:21.811Z,37.63
2018-12-19T23:01:06.197Z,38.67
2018-12-19T23:03:46.413Z,37.13
2018-12-19T23:06:16.465Z,36.20
2018-12-19T23:08:46.252Z,35.67
2018-12-19T23:11:15.817Z,37.80
2018-12-19T23:13:45.462Z,36.97
2018-12-19T23:16:14.183Z,38.00
2018-12-19T23:18:50.802Z,36.70
2018-12-19T23:21:29.704Z,36.30
2018-12-19T23:24:04.873Z,40.40
2018-12-19T23:26:36.988Z,37.10
2018-12-19T23:29:06.411Z,36.60
2018-12-19T23:31:35.569Z,38.30
2018-12-19T23:34:04.952Z,37.73
2018-12-19T23:36:34.567Z,39.40
2018-12-19T23:39:05.820Z,39.97
2018-12-19T23:41:36.000Z,37.23
2018-12-19T23:44:05.562Z,39.90
2018-12-19T23:46:38.935Z,38.37
